createdAt,value
2022-09-26T14:10:16.450Z,47.27
2022-09-26T14:11:16.437Z,46.86
2022-09-26T14:12:16.440Z,47.15
2022-09-26T14:13:16.449Z,47.05
2022-09-26T14:14:16.636Z,47.05
2022-09-26T14:15:16.469Z,47.05
2022-09-26T14:16:16.554Z,46.86
2022-09-26T14:17:20.100Z,47.25
2022-09-26T14:18:16.512Z,47.44
2022-09-26T14:19:16.516Z,47.63
2022-09-26T14:20:16.526Z,47.63
2022-09-26T14:21:16.537Z,47.63
2022-09-26T14:22:16.546Z,47.92
2022-09-26T14:23:16.548Z,47.61
2022-09-26T14:24:16.557Z,47.71
2022-09-26T14:25:16.568Z,47.63
2022-09-26T14:26:16.612Z,47.99
2022-09-26T14:27:16.594Z,47.89
2022-09-26T14:28:16.598Z,48.28
2022-09-26T14:29:16.613Z,48.18
2022-09-26T14:30:16.624Z,48.21
2022-09-26T14:31:16.723Z,48.28
2022-09-26T14:32:16.644Z,48.18
2022-09-26T14:33:16.651Z,48.18
2022-09-26T14:34:16.858Z,48.47
2022-09-26T14:35:16.665Z,48.85
2022-09-26T14:36:16.683Z,48.47
2022-09-26T14:37:16.694Z,48.85
2022-09-26T14:38:16.705Z,48.76
2022-09-26T14:39:18.380Z,48.85
2022-09-26T14:40:16.835Z,48.66
2022-09-26T14:41:16.730Z,48.76
2022-09-26T14:42:16.765Z,48.95
2022-09-26T14:49:29.278Z,49.24
2022-09-26T15:32:57.600Z,50.94
2022-09-26T15:33:57.591Z,51.83
2022-09-26T15:34:57.600Z,51.45
2022-09-26T15:35:57.606Z,51.35
2022-09-26T15:36:57.618Z,51.45
2022-09-26T15:37:57.626Z,51.54
2022-09-26T15:38:57.637Z,51.54
2022-09-26T15:39:57.646Z,51.35
2022-09-26T15:40:57.725Z,51.64
2022-09-26T15:41:57.665Z,51.35
2022-09-26T15:42:57.674Z,51.25
2022-09-26T15:43:57.682Z,51.25
2022-09-26T15:44:57.690Z,51.25
2022-09-26T15:45:57.758Z,51.25
2022-09-26T15:46:57.797Z,51.06
2022-09-26T15:47:57.718Z,51.06
2022-09-26T15:48:57.856Z,51.64
2022-09-26T15:49:57.738Z,51.45
2022-09-26T15:50:57.750Z,51.32
2022-09-26T15:51:57.756Z,51.42
2022-09-26T15:52:57.764Z,51.61
2022-09-26T15:53:57.773Z,51.32
2022-09-26T15:54:57.783Z,51.81
2022-09-26T15:55:57.790Z,51.51
2022-09-26T15:56:57.816Z,51.51
2022-09-26T15:57:57.811Z,51.81
2022-09-26T15:58:57.818Z,51.61
2022-09-26T15:59:57.830Z,51.61
2022-09-26T16:00:57.836Z,51.32
2022-09-26T16:01:57.925Z,52.00
2022-09-26T16:02:57.919Z,51.51
2022-09-26T16:03:57.864Z,52.38
2022-09-26T16:04:57.894Z,52.28
2022-09-26T16:05:57.883Z,52.28
2022-09-26T16:06:57.890Z,52.74
2022-09-26T16:07:57.900Z,52.55
2022-09-26T16:08:57.909Z,52.64
2022-09-26T16:09:57.916Z,52.93
2022-09-26T16:10:57.927Z,53.41
2022-09-26T16:11:57.936Z,53.60
2022-09-26T16:12:57.944Z,53.99
2022-09-26T16:13:57.953Z,53.99
2022-09-26T16:14:57.962Z,54.37
2022-09-26T16:15:58.044Z,54.17
2022-09-26T16:17:01.012Z,54.66
2022-09-26T16:17:57.986Z,54.46
2022-09-26T16:18:57.997Z,54.75
2022-09-26T16:19:58.007Z,54.66
2022-09-26T16:20:58.035Z,55.04
2022-09-26T16:21:58.023Z,55.33
2022-09-26T16:23:03.366Z,55.33
2022-09-26T16:23:58.039Z,55.23
2022-09-26T16:24:58.047Z,55.11
2022-09-26T16:25:58.057Z,55.49
2022-09-26T16:26:58.066Z,55.33
2022-09-26T16:27:58.074Z,55.49
2022-09-26T16:28:58.080Z,55.68
2022-09-26T16:30:02.500Z,55.58
2022-09-26T16:30:58.203Z,56.35
2022-09-26T16:31:58.105Z,56.26
2022-09-26T16:32:58.116Z,56.64
2022-09-26T16:33:58.135Z,56.74
2022-09-26T16:36:05.746Z,57.03
2022-09-26T16:37:05.736Z,57.12
2022-09-26T16:38:05.744Z,57.21
2022-09-26T16:39:05.753Z,57.12
2022-09-26T16:40:05.759Z,58.17
2022-09-26T16:41:05.770Z,58.17
2022-09-26T16:42:05.916Z,58.65
2022-09-26T16:43:05.785Z,58.56
2022-09-26T16:44:08.586Z,58.34
2022-09-26T16:45:05.803Z,58.72
2022-09-26T16:46:05.946Z,59.20
2022-09-26T16:47:06.116Z,58.91
2022-09-26T16:48:05.831Z,59.20
2022-09-26T16:49:05.834Z,59.20
2022-09-26T16:50:05.843Z,59.58
2022-09-26T16:51:05.852Z,59.77
2022-09-26T16:52:05.879Z,59.77
2022-09-26T16:53:05.878Z,60.35
2022-09-26T16:54:05.877Z,60.16
2022-09-26T16:55:05.882Z,60.64
2022-09-26T16:56:05.894Z,60.64
2022-09-26T16:57:05.900Z,60.25
2022-09-26T16:58:05.909Z,60.35
2022-09-26T16:59:05.915Z,60.16
2022-09-26T17:00:05.927Z,60.83
2022-09-26T17:02:13.526Z,61.40
2022-09-26T17:03:13.616Z,61.40
2022-09-26T17:04:13.543Z,61.76
2022-09-26T17:05:13.550Z,61.66
2022-09-26T17:06:13.559Z,62.17
2022-09-26T17:07:13.592Z,61.88
2022-09-26T17:08:13.584Z,62.23
2022-09-26T17:09:13.582Z,62.81
2022-09-26T17:10:13.591Z,62.71
2022-09-26T17:11:13.601Z,62.43
2022-09-26T17:12:13.607Z,63.19
2022-09-26T17:13:13.613Z,63.48
2022-09-26T17:14:13.621Z,63.39
2022-09-26T17:15:13.633Z,63.39
2022-09-26T17:16:13.701Z,63.39
2022-09-26T17:17:13.645Z,63.19
2022-09-26T17:18:13.652Z,63.19
2022-09-26T17:19:13.663Z,63.29
2022-09-26T17:20:13.671Z,63.39
2022-09-26T17:21:13.677Z,63.57
2022-09-26T17:22:13.687Z,63.29
2022-09-26T17:23:38.216Z,63.67
2022-09-26T17:24:13.699Z,63.67
2022-09-26T17:25:13.740Z,64.05
2022-09-26T17:26:13.742Z,64.34
2022-09-26T17:27:13.803Z,64.12
2022-09-26T17:28:13.750Z,63.93
2022-09-26T17:29:13.760Z,64.02
2022-09-26T17:30:13.766Z,64.02
2022-09-26T17:31:13.867Z,64.02
2022-09-26T17:32:13.796Z,64.69
2022-09-26T17:33:13.774Z,64.69
2022-09-26T17:34:13.957Z,64.69
2022-09-26T17:35:13.794Z,65.17
2022-09-26T17:36:13.795Z,65.08
2022-09-26T17:37:13.804Z,65.08
2022-09-26T17:38:13.811Z,65.26
2022-09-26T17:39:13.840Z,65.08
2022-09-26T17:40:13.916Z,65.08
2022-09-26T17:41:13.833Z,65.36
2022-09-26T17:42:13.838Z,65.08
2022-09-26T17:43:13.848Z,65.08
2022-09-26T17:44:13.853Z,65.08
2022-09-26T17:45:13.865Z,65.26
2022-09-26T17:46:15.420Z,65.65
2022-09-26T17:47:13.879Z,65.45
2022-09-26T17:48:13.884Z,65.94
2022-09-26T17:49:13.894Z,65.55
2022-09-26T17:50:13.901Z,65.26
2022-09-26T17:51:14.026Z,65.45
2022-09-26T17:52:13.915Z,65.94
2022-09-26T17:53:13.925Z,65.94
2022-09-26T17:54:13.939Z,65.65
2022-09-26T17:55:13.968Z,65.94
2022-09-26T17:56:13.947Z,66.03
2022-09-26T17:57:13.955Z,65.94
2022-09-26T17:58:13.962Z,66.22
2022-09-26T17:59:13.970Z,65.84
2022-09-26T18:00:13.979Z,66.03
2022-09-26T18:01:14.018Z,66.13
2022-09-26T18:02:14.033Z,66.41
2022-09-26T18:03:18.824Z,66.41
2022-09-26T18:04:14.277Z,66.99
2022-09-26T18:05:14.014Z,66.99
2022-09-26T18:06:14.023Z,66.99
2022-09-26T18:07:14.030Z,66.96
2022-09-26T18:08:14.036Z,67.08
2022-09-26T18:09:14.046Z,67.27
2022-09-26T18:10:14.052Z,67.37
2022-09-26T18:11:14.104Z,67.47
2022-09-26T18:12:14.066Z,67.24
2022-09-26T18:13:14.089Z,67.66
2022-09-26T18:14:14.082Z,67.63
2022-09-26T18:15:14.091Z,67.56
2022-09-26T18:16:14.190Z,67.66
2022-09-26T18:17:14.107Z,67.85
2022-09-26T18:18:14.146Z,67.85
2022-09-26T18:19:14.158Z,67.63
2022-09-26T18:20:14.135Z,67.82
2022-09-26T18:21:14.145Z,67.82
2022-09-26T18:22:14.143Z,68.29
2022-09-26T18:23:14.152Z,68.01
2022-09-26T18:24:19.203Z,68.20
2022-09-26T18:25:14.167Z,67.82
2022-09-26T18:26:14.176Z,67.82
2022-09-26T18:27:14.203Z,68.10
2022-09-26T18:28:14.187Z,68.39
2022-09-26T18:29:14.198Z,68.20
2022-09-26T18:30:14.205Z,67.91
2022-09-26T18:31:14.353Z,68.39
2022-09-26T18:32:14.218Z,68.58
2022-09-26T18:33:14.233Z,68.68
2022-09-26T18:34:14.234Z,68.58
2022-09-26T18:35:14.241Z,68.77
2022-09-26T18:36:14.246Z,68.77
2022-09-26T18:37:14.265Z,68.87
2022-09-26T18:38:14.262Z,68.58
2022-09-26T18:39:14.268Z,68.58
2022-09-26T18:40:14.327Z,69.35
2022-09-26T18:41:14.284Z,69.06
2022-09-26T18:42:14.292Z,69.06
2022-09-26T18:43:14.321Z,68.96
2022-09-26T18:44:14.307Z,69.15
2022-09-26T18:45:14.314Z,68.96
2022-09-26T18:46:14.374Z,69.54
2022-09-26T18:47:14.332Z,69.44
2022-09-26T18:48:14.336Z,69.44
2022-09-26T18:49:14.344Z,69.35
2022-09-26T18:50:14.351Z,69.25
2022-09-26T18:51:14.360Z,69.64
2022-09-26T18:52:14.365Z,69.64
2022-09-26T18:53:14.370Z,69.54
2022-09-26T18:54:14.634Z,69.44
2022-09-26T18:55:14.386Z,69.60
2022-09-26T18:56:14.394Z,69.82
2022-09-26T18:57:14.400Z,70.21
2022-09-26T18:58:14.409Z,69.89
2022-09-26T18:59:14.440Z,70.17
2022-09-26T19:00:14.422Z,70.07
2022-09-26T19:01:14.561Z,70.17
2022-09-26T19:02:14.657Z,70.07
2022-09-26T19:03:14.444Z,69.79
2022-09-26T19:04:14.623Z,70.36
2022-09-26T19:05:14.463Z,70.36
2022-09-26T19:06:14.468Z,70.56
2022-09-26T19:07:20.203Z,70.50
2022-09-26T19:08:14.481Z,70.46
2022-09-26T20:31:32.566Z,71.16
2022-09-26T20:32:32.547Z,70.78
2022-09-26T20:33:32.552Z,70.87
2022-09-26T20:34:32.559Z,70.97
2022-09-26T20:35:35.441Z,70.97
2022-09-26T20:36:32.571Z,70.50
2022-09-26T20:37:32.575Z,70.59
2022-09-26T20:38:32.583Z,70.68
2022-09-26T20:39:32.595Z,70.59
2022-09-26T20:40:32.630Z,70.11
2022-09-26T20:41:34.019Z,70.21
2022-09-26T20:42:32.610Z,69.92
2022-09-26T20:43:32.617Z,70.21
2022-09-26T20:44:32.625Z,70.11
2022-09-26T20:45:32.628Z,70.21
2022-09-26T20:46:32.747Z,70.21
2022-09-26T20:47:32.664Z,70.11
2022-09-26T20:48:32.649Z,70.21
2022-09-26T20:49:32.656Z,69.92
2022-09-26T20:50:34.403Z,69.82
2022-09-26T20:51:32.668Z,70.11
2022-09-26T20:52:32.675Z,70.30
2022-09-26T20:53:32.680Z,69.54
2022-09-26T20:54:32.690Z,69.64
2022-09-26T20:55:32.694Z,69.64
2022-09-26T20:56:32.704Z,69.73
2022-09-26T20:57:32.710Z,69.73
2022-09-26T20:58:32.718Z,69.73
2022-09-26T20:59:32.722Z,69.64
2022-09-26T21:00:32.729Z,69.73
2022-09-26T21:01:32.922Z,69.54
2022-09-26T21:02:32.805Z,69.64
2022-09-26T21:03:32.771Z,69.44
2022-09-26T21:04:32.759Z,69.64
2022-09-26T21:05:32.766Z,69.54
2022-09-26T21:06:32.770Z,69.73
2022-09-26T21:07:32.777Z,69.73
2022-09-26T21:08:32.784Z,69.82
2022-09-26T21:09:32.791Z,69.64
2022-09-26T21:10:32.800Z,69.64
2022-09-26T21:11:32.807Z,69.73
2022-09-26T21:13:15.356Z,69.82
2022-09-26T21:14:15.362Z,70.01
2022-09-26T21:15:15.370Z,70.21
2022-09-26T21:16:15.462Z,70.11
2022-09-26T21:17:15.441Z,70.40
2022-09-26T21:18:15.394Z,70.30
2022-09-26T21:19:15.584Z,70.21
2022-09-26T21:20:15.403Z,70.11
2022-09-26T21:21:15.412Z,70.30
2022-09-26T21:22:15.417Z,70.17
2022-09-26T21:23:15.426Z,70.84
2022-09-26T21:24:15.432Z,70.65
2022-09-26T21:25:15.438Z,70.27
2022-09-26T21:26:15.447Z,70.75
2022-09-26T21:27:15.454Z,70.84
2022-09-26T21:28:15.460Z,70.84
2022-09-26T21:29:15.471Z,71.03
2022-09-26T21:30:15.490Z,70.94
2022-09-26T21:31:15.561Z,71.13
2022-09-26T21:32:15.487Z,71.13
2022-09-26T21:33:15.493Z,71.22
2022-09-26T21:34:15.501Z,71.22
2022-09-26T21:35:15.531Z,71.13
2022-09-26T21:36:15.515Z,71.03
2022-09-26T21:37:15.522Z,71.13
2022-09-26T21:38:15.530Z,71.13
2022-09-26T21:39:15.633Z,71.16
2022-09-26T21:40:15.574Z,71.03
2022-09-26T21:41:15.552Z,71.13
2022-09-26T21:42:15.559Z,70.75
2022-09-26T21:43:15.563Z,70.94
2022-09-26T21:44:15.598Z,71.32
2022-09-26T21:45:15.579Z,71.22
2022-09-26T21:46:15.634Z,71.32
2022-09-26T21:47:15.588Z,71.80
2022-09-26T21:48:15.601Z,71.80
2022-09-26T21:49:15.649Z,71.51
2022-09-26T21:50:15.608Z,71.51
2022-09-26T21:51:15.643Z,71.32
2022-09-26T21:52:15.625Z,71.70
2022-09-26T21:53:15.634Z,72.08
2022-09-26T21:54:15.654Z,71.80
2022-09-26T21:55:15.643Z,71.80
2022-09-26T21:56:15.653Z,72.28
2022-09-26T21:57:15.657Z,72.28
2022-09-26T21:58:15.666Z,72.28
2022-09-26T21:59:15.779Z,72.28
2022-09-26T22:00:15.680Z,72.75
2022-09-26T22:01:15.769Z,72.66
2022-09-26T22:02:15.728Z,73.14
2022-09-26T22:03:15.700Z,73.14
2022-09-26T22:04:15.705Z,72.94
2022-09-26T22:05:15.712Z,73.90
2022-09-26T22:06:15.718Z,73.99
2022-09-26T22:07:15.749Z,73.71
2022-09-26T22:08:15.732Z,73.99
2022-09-26T22:09:15.934Z,73.80
2022-09-26T22:10:15.747Z,73.61
2022-09-26T22:11:15.753Z,74.19
2022-09-26T22:12:15.762Z,74.19
2022-09-26T22:13:15.767Z,73.99
2022-09-26T22:14:15.776Z,73.90
2022-09-26T22:15:15.780Z,74.28
2022-09-26T22:16:15.885Z,73.99
2022-09-26T22:17:15.793Z,74.28
2022-09-26T22:18:15.801Z,74.57
2022-09-26T22:19:15.891Z,74.38
2022-09-26T22:20:15.814Z,74.48
2022-09-26T22:21:15.822Z,74.19
2022-09-26T22:22:15.827Z,74.38
2022-09-26T22:23:15.856Z,74.28
2022-09-26T22:24:15.840Z,74.28
2022-09-26T22:25:15.847Z,74.38
2022-09-26T22:26:15.854Z,74.28
2022-09-26T22:27:15.862Z,74.48
2022-09-26T22:28:15.868Z,74.76
2022-09-26T22:29:16.041Z,74.48
2022-09-26T22:30:15.881Z,74.85
2022-09-26T22:31:15.970Z,74.85
2022-09-26T22:32:15.895Z,74.57
2022-09-26T22:33:15.900Z,74.57
2022-09-26T22:34:15.909Z,74.85
2022-09-26T22:35:15.923Z,74.57
2022-09-26T22:36:15.923Z,74.57
2022-09-26T22:37:15.927Z,74.76
2022-09-26T22:38:15.936Z,75.05
2022-09-26T22:39:16.068Z,74.66
2022-09-26T22:40:15.994Z,74.66
2022-09-26T22:41:15.954Z,74.85
2022-09-26T22:42:15.962Z,74.85
2022-09-26T22:43:15.969Z,75.24
2022-09-26T22:44:15.974Z,75.05
2022-09-26T22:45:15.980Z,75.43
2022-09-26T22:46:16.018Z,75.52
2022-09-26T22:47:15.998Z,75.14
2022-09-26T22:48:15.999Z,75.71
2022-09-26T22:49:16.099Z,75.43
2022-09-26T22:50:16.013Z,75.68
2022-09-26T22:51:16.047Z,75.39
2022-09-26T22:52:16.026Z,75.59
2022-09-26T22:53:16.033Z,75.78
2022-09-26T22:54:16.039Z,75.81
2022-09-26T22:55:16.071Z,76.10
2022-09-26T22:56:16.054Z,75.91
2022-09-26T22:57:16.060Z,75.87
2022-09-26T22:58:16.065Z,76.06
2022-09-26T22:59:16.232Z,75.91
2022-09-26T23:00:16.078Z,75.78
2022-09-26T23:01:16.142Z,75.78
2022-09-26T23:02:16.168Z,76.16
2022-09-26T23:03:16.098Z,76.35
2022-09-26T23:04:16.106Z,76.06
2022-09-26T23:05:16.111Z,76.25
2022-09-26T23:06:16.124Z,76.16
2022-09-26T23:07:16.132Z,76.06
2022-09-26T23:08:16.132Z,76.06
2022-09-26T23:09:16.279Z,76.16
2022-09-26T23:10:16.147Z,76.25
2022-09-26T23:11:16.172Z,76.25
2022-09-26T23:12:16.175Z,76.25
2022-09-26T23:13:16.163Z,76.16
2022-09-26T23:14:16.172Z,76.06
2022-09-26T23:15:16.178Z,76.16
2022-09-26T23:16:16.274Z,76.54
2022-09-26T23:17:16.346Z,76.06
2022-09-26T23:18:16.196Z,76.35
2022-09-26T23:19:16.319Z,76.16
2022-09-26T23:20:16.210Z,76.25
2022-09-26T23:21:16.219Z,76.25
2022-09-26T23:22:16.222Z,76.25
2022-09-26T23:23:16.229Z,76.06
2022-09-26T23:24:16.236Z,76.16
2022-09-26T23:25:16.244Z,76.35
2022-09-26T23:26:16.249Z,75.96
2022-09-26T23:27:16.278Z,76.64
2022-09-26T23:28:16.262Z,76.54
2022-09-26T23:29:16.391Z,77.01
2022-09-26T23:30:16.274Z,77.11
2022-09-26T23:31:16.350Z,77.59
2022-09-26T23:32:16.286Z,77.50
2022-09-26T23:33:16.300Z,78.36
2022-09-26T23:34:16.300Z,78.07
2022-09-26T23:35:16.308Z,78.26
2022-09-26T23:36:16.316Z,78.45
2022-09-26T23:37:16.329Z,79.69
2022-09-26T23:38:16.327Z,79.41
2022-09-26T23:39:16.478Z,79.02
2022-09-26T23:40:16.394Z,79.22
2022-09-26T23:41:16.344Z,79.12
2022-09-26T23:42:16.352Z,79.41
2022-09-26T23:43:16.377Z,79.69
2022-09-26T23:44:16.365Z,79.41
2022-09-26T23:45:16.371Z,79.79
2022-09-26T23:46:16.451Z,80.36
2022-09-26T23:47:16.382Z,80.22
2022-09-26T23:48:16.389Z,80.36
2022-09-26T23:49:16.452Z,80.22
2022-09-26T23:50:16.402Z,80.55
2022-09-26T23:51:16.406Z,80.51
2022-09-26T23:52:16.414Z,80.51
2022-09-26T23:53:16.419Z,80.90
2022-09-26T23:54:16.427Z,80.61
2022-09-26T23:55:16.432Z,80.61
2022-09-26T23:56:16.436Z,80.51
2022-09-26T23:57:16.444Z,80.80
2022-09-26T23:58:16.449Z,81.27
2022-09-26T23:59:16.604Z,81.47
